createdAt,value
2023-01-17T00:00:07.000Z,90.0
2023-01-17T00:00:22.000Z,90.0
2023-01-17T00:00:37.000Z,90.0
2023-01-17T00:00:52.000Z,90.0
2023-01-17T00:01:07.000Z,90.0
2023-01-17T00:01:21.000Z,91.0
2023-01-17T00:01:36.000Z,91.0
2023-01-17T00:01:51.000Z,91.0
2023-01-17T00:02:07.000Z,91.0
2023-01-17T00:02:22.000Z,90.0
2023-01-17T00:02:37.000Z,90.0
2023-01-17T00:02:52.000Z,90.0
2023-01-17T00:03:07.000Z,90.0
2023-01-17T00:03:22.000Z,90.0
2023-01-17T00:03:37.000Z,90.0
2023-01-17T00:03:52.000Z,90.0
2023-01-17T00:04:07.000Z,92.0
2023-01-17T00:04:22.000Z,92.0
2023-01-17T00:04:37.000Z,91.0
2023-01-17T00:04:52.000Z,90.0
2023-01-17T00:05:07.000Z,90.0
2023-01-17T00:05:22.000Z,90.0
2023-01-17T00:05:37.000Z,90.0
2023-01-17T00:05:52.000Z,91.0
2023-01-17T00:06:07.000Z,91.0
2023-01-17T00:06:22.000Z,90.0
2023-01-17T00:06:37.000Z,90.0
2023-01-17T00:06:52.000Z,90.0
2023-01-17T00:07:07.000Z,91.0
2023-01-17T00:07:22.000Z,90.0
2023-01-17T00:07:37.000Z,90.0
2023-01-17T00:07:52.000Z,90.0
2023-01-17T00:08:07.000Z,90.0
2023-01-17T00:08:22.000Z,90.0
2023-01-17T00:08:36.000Z,90.0
2023-01-17T00:08:51.000Z,90.0
2023-01-17T00:09:06.000Z,90.0
2023-01-17T00:09:22.000Z,90.0
2023-01-17T00:09:37.000Z,91.0
2023-01-17T00:09:52.000Z,90.0
2023-01-17T00:10:07.000Z,90.0
2023-01-17T00:10:22.000Z,91.0
2023-01-17T00:10:37.000Z,90.0
2023-01-17T00:10:52.000Z,90.0
2023-01-17T00:11:07.000Z,90.0
2023-01-17T00:11:22.000Z,90.0
2023-01-17T00:11:37.000Z,90.0
2023-01-17T00:11:52.000Z,91.0
2023-01-17T00:12:07.000Z,91.0
2023-01-17T00:12:22.000Z,90.0
2023-01-17T00:12:37.000Z,90.0
2023-01-17T00:12:52.000Z,91.0
2023-01-17T00:13:07.000Z,91.0
2023-01-17T00:13:22.000Z,91.0
2023-01-17T00:13:37.000Z,91.0
2023-01-17T00:13:52.000Z,90.0
2023-01-17T00:14:07.000Z,91.0
2023-01-17T00:14:22.000Z,90.0
2023-01-17T00:14:37.000Z,91.0
2023-01-17T00:14:52.000Z,91.0
2023-01-17T00:15:07.000Z,90.0
2023-01-17T00:15:22.000Z,90.0
2023-01-17T00:15:37.000Z,90.0
2023-01-17T00:15:51.000Z,90.0
2023-01-17T00:16:06.000Z,91.0
2023-01-17T00:16:21.000Z,90.0
2023-01-17T00:16:37.000Z,90.0
2023-01-17T00:16:52.000Z,90.0
2023-01-17T00:17:07.000Z,90.0
2023-01-17T00:17:22.000Z,90.0
2023-01-17T00:17:37.000Z,90.0
2023-01-17T00:17:52.000Z,90.0
2023-01-17T00:18:07.000Z,90.0
2023-01-17T00:18:22.000Z,91.0
2023-01-17T00:18:37.000Z,91.0
2023-01-17T00:18:52.000Z,91.0
2023-01-17T00:19:07.000Z,91.0
2023-01-17T00:19:22.000Z,91.0
2023-01-17T00:19:37.000Z,90.0
2023-01-17T00:19:52.000Z,90.0
2023-01-17T00:20:07.000Z,90.0
2023-01-17T00:20:22.000Z,90.0
2023-01-17T00:20:37.000Z,91.0
2023-01-17T00:20:52.000Z,91.0
2023-01-17T00:21:07.000Z,90.0
2023-01-17T00:21:22.000Z,90.0
2023-01-17T00:21:37.000Z,90.0
2023-01-17T00:21:52.000Z,90.0
2023-01-17T00:22:07.000Z,90.0
2023-01-17T00:22:22.000Z,90.0
2023-01-17T00:22:37.000Z,90.0
2023-01-17T00:22:52.000Z,90.0
2023-01-17T00:23:06.000Z,90.0
2023-01-17T00:23:21.000Z,91.0
2023-01-17T00:23:36.000Z,92.0
2023-01-17T00:23:52.000Z,92.0
2023-01-17T00:24:07.000Z,92.0
2023-01-17T00:24:22.000Z,91.0
2023-01-17T00:24:37.000Z,92.0
2023-01-17T00:24:52.000Z,91.0
2023-01-17T00:25:07.000Z,91.0
2023-01-17T00:25:22.000Z,91.0
2023-01-17T00:25:37.000Z,91.0
2023-01-17T00:25:52.000Z,91.0
2023-01-17T00:26:07.000Z,90.0
2023-01-17T00:26:22.000Z,90.0
2023-01-17T00:26:37.000Z,90.0
2023-01-17T00:26:52.000Z,90.0
2023-01-17T00:27:07.000Z,90.0
2023-01-17T00:27:22.000Z,90.0
2023-01-17T00:27:37.000Z,91.0
2023-01-17T00:27:52.000Z,92.0
2023-01-17T00:28:07.000Z,91.0
2023-01-17T00:28:22.000Z,91.0
2023-01-17T00:28:37.000Z,91.0
2023-01-17T00:28:52.000Z,91.0
2023-01-17T00:29:07.000Z,91.0
2023-01-17T00:29:22.000Z,91.0
2023-01-17T00:29:37.000Z,92.0
2023-01-17T00:29:52.000Z,92.0
2023-01-17T00:30:07.000Z,92.0
2023-01-17T00:30:21.000Z,92.0
2023-01-17T00:30:36.000Z,92.0
2023-01-17T00:30:51.000Z,92.0
2023-01-17T00:31:07.000Z,91.0
2023-01-17T00:31:22.000Z,91.0
2023-01-17T00:31:37.000Z,91.0
2023-01-17T00:31:52.000Z,91.0
2023-01-17T00:32:07.000Z,91.0
2023-01-17T00:32:22.000Z,91.0
2023-01-17T00:32:37.000Z,91.0
2023-01-17T00:32:52.000Z,91.0
2023-01-17T00:33:07.000Z,91.0
2023-01-17T00:33:22.000Z,92.0
2023-01-17T00:33:37.000Z,92.0
2023-01-17T00:33:52.000Z,92.0
2023-01-17T00:34:07.000Z,92.0
2023-01-17T00:34:22.000Z,92.0
2023-01-17T00:34:37.000Z,92.0
2023-01-17T00:34:52.000Z,92.0
2023-01-17T00:35:07.000Z,92.0
2023-01-17T00:35:22.000Z,93.0
2023-01-17T00:35:37.000Z,93.0
2023-01-17T00:35:52.000Z,92.0
2023-01-17T00:36:07.000Z,92.0
2023-01-17T00:36:22.000Z,92.0
2023-01-17T00:36:37.000Z,92.0
2023-01-17T00:36:52.000Z,92.0
2023-01-17T00:37:07.000Z,92.0
2023-01-17T00:37:22.000Z,92.0
2023-01-17T00:37:36.000Z,92.0
2023-01-17T00:37:51.000Z,92.0
2023-01-17T00:38:06.000Z,92.0
2023-01-17T00:38:22.000Z,92.0
2023-01-17T00:38:37.000Z,92.0
2023-01-17T00:38:52.000Z,92.0
2023-01-17T00:39:07.000Z,93.0
2023-01-17T00:39:22.000Z,93.0
2023-01-17T00:39:37.000Z,92.0
2023-01-17T00:39:52.000Z,92.0
2023-01-17T00:40:07.000Z,93.0
2023-01-17T00:40:22.000Z,93.0
2023-01-17T00:40:37.000Z,93.0
2023-01-17T00:40:52.000Z,93.0
2023-01-17T00:41:07.000Z,93.0
2023-01-17T00:41:22.000Z,93.0
2023-01-17T00:41:37.000Z,93.0
2023-01-17T00:41:52.000Z,93.0
2023-01-17T00:42:07.000Z,93.0
2023-01-17T00:42:22.000Z,92.0
2023-01-17T00:42:37.000Z,92.0
2023-01-17T00:42:52.000Z,93.0
2023-01-17T00:43:07.000Z,93.0
2023-01-17T00:43:22.000Z,93.0
2023-01-17T00:43:37.000Z,93.0
2023-01-17T00:43:52.000Z,93.0
2023-01-17T00:44:07.000Z,93.0
2023-01-17T00:44:22.000Z,92.0
2023-01-17T00:44:37.000Z,92.0
2023-01-17T00:44:51.000Z,93.0
2023-01-17T00:45:06.000Z,92.0
2023-01-17T00:45:21.000Z,92.0
2023-01-17T00:45:37.000Z,92.0
2023-01-17T00:45:52.000Z,92.0
2023-01-17T00:46:07.000Z,92.0
2023-01-17T00:46:22.000Z,92.0
2023-01-17T00:46:37.000Z,93.0
2023-01-17T00:46:52.000Z,93.0
2023-01-17T00:47:07.000Z,93.0
2023-01-17T00:47:22.000Z,93.0
2023-01-17T00:47:37.000Z,93.0
2023-01-17T00:47:52.000Z,93.0
2023-01-17T00:48:07.000Z,93.0
2023-01-17T00:48:22.000Z,93.0
2023-01-17T00:48:37.000Z,93.0
2023-01-17T00:48:52.000Z,93.0
2023-01-17T00:49:07.000Z,93.0
2023-01-17T00:49:22.000Z,93.0
2023-01-17T00:49:37.000Z,92.0
2023-01-17T00:49:52.000Z,92.0
2023-01-17T00:50:07.000Z,92.0
2023-01-17T00:50:22.000Z,92.0
2023-01-17T00:50:37.000Z,93.0
2023-01-17T00:50:52.000Z,93.0
2023-01-17T00:51:07.000Z,93.0
2023-01-17T00:51:22.000Z,93.0
2023-01-17T00:51:37.000Z,93.0
2023-01-17T00:51:52.000Z,92.0
2023-01-17T00:52:06.000Z,93.0
2023-01-17T00:52:21.000Z,93.0
2023-01-17T00:52:36.000Z,93.0
2023-01-17T00:52:52.000Z,93.0
2023-01-17T00:53:07.000Z,93.0
2023-01-17T00:53:22.000Z,93.0
2023-01-17T00:53:37.000Z,93.0
2023-01-17T00:53:52.000Z,93.0
2023-01-17T00:54:07.000Z,93.0
2023-01-17T00:54:22.000Z,93.0
2023-01-17T00:54:37.000Z,93.0
2023-01-17T00:54:52.000Z,93.0
2023-01-17T00:55:07.000Z,93.0
2023-01-17T00:55:22.000Z,93.0
2023-01-17T00:55:37.000Z,93.0
2023-01-17T00:55:52.000Z,93.0
2023-01-17T00:56:07.000Z,93.0
2023-01-17T00:56:22.000Z,94.0
2023-01-17T00:56:37.000Z,93.0
2023-01-17T00:56:52.000Z,94.0
2023-01-17T00:57:07.000Z,94.0
2023-01-17T00:57:22.000Z,93.0
2023-01-17T00:57:37.000Z,93.0
2023-01-17T00:57:52.000Z,93.0
2023-01-17T00:58:07.000Z,93.0
2023-01-17T00:58:22.000Z,93.0
2023-01-17T00:58:37.000Z,93.0
2023-01-17T00:58:52.000Z,92.0
2023-01-17T00:59:07.000Z,92.0
2023-01-17T00:59:21.000Z,92.0
2023-01-17T00:59:36.000Z,92.0
2023-01-17T00:59:51.000Z,92.0
2023-01-17T01:00:07.000Z,93.0
2023-01-17T01:00:22.000Z,93.0
2023-01-17T01:00:37.000Z,93.0
2023-01-17T01:00:52.000Z,93.0
2023-01-17T01:01:07.000Z,93.0
2023-01-17T01:01:22.000Z,93.0
2023-01-17T01:01:37.000Z,93.0
2023-01-17T01:01:52.000Z,93.0
2023-01-17T01:02:07.000Z,93.0
2023-01-17T01:02:22.000Z,93.0
2023-01-17T01:02:37.000Z,93.0
2023-01-17T01:02:52.000Z,92.0
2023-01-17T01:03:07.000Z,92.0
2023-01-17T01:03:22.000Z,92.0
2023-01-17T01:03:37.000Z,92.0
2023-01-17T01:03:52.000Z,92.0
2023-01-17T01:04:07.000Z,92.0
2023-01-17T01:04:22.000Z,92.0
2023-01-17T01:04:37.000Z,91.0
2023-01-17T01:04:52.000Z,92.0
2023-01-17T01:05:07.000Z,92.0
2023-01-17T01:05:22.000Z,92.0
2023-01-17T01:05:37.000Z,92.0
2023-01-17T01:05:52.000Z,92.0
2023-01-17T01:06:07.000Z,93.0
2023-01-17T01:06:22.000Z,92.0
2023-01-17T01:06:36.000Z,92.0
2023-01-17T01:06:51.000Z,92.0
2023-01-17T01:07:06.000Z,92.0
2023-01-17T01:07:22.000Z,92.0
2023-01-17T01:07:37.000Z,92.0
2023-01-17T01:07:52.000Z,92.0
2023-01-17T01:08:07.000Z,92.0
2023-01-17T01:08:22.000Z,92.0
2023-01-17T01:08:37.000Z,93.0
2023-01-17T01:08:52.000Z,93.0
2023-01-17T01:09:07.000Z,92.0
2023-01-17T01:09:22.000Z,92.0
2023-01-17T01:09:37.000Z,93.0
2023-01-17T01:09:52.000Z,92.0
2023-01-17T01:10:07.000Z,92.0
2023-01-17T01:10:22.000Z,92.0
2023-01-17T01:10:37.000Z,92.0
2023-01-17T01:10:52.000Z,92.0
2023-01-17T01:11:07.000Z,92.0
2023-01-17T01:11:22.000Z,92.0
2023-01-17T01:11:37.000Z,93.0
2023-01-17T01:11:52.000Z,93.0
2023-01-17T01:12:07.000Z,92.0
2023-01-17T01:12:22.000Z,93.0
2023-01-17T01:12:37.000Z,92.0
2023-01-17T01:12:52.000Z,92.0
2023-01-17T01:13:07.000Z,92.0
2023-01-17T01:13:22.000Z,92.0
2023-01-17T01:13:37.000Z,92.0
2023-01-17T01:13:51.000Z,92.0
2023-01-17T01:14:06.000Z,92.0
2023-01-17T01:14:22.000Z,92.0
2023-01-17T01:14:37.000Z,92.0
2023-01-17T01:14:52.000Z,92.0
2023-01-17T01:15:07.000Z,92.0
2023-01-17T01:15:22.000Z,93.0
2023-01-17T01:15:37.000Z,93.0
2023-01-17T01:15:52.000Z,92.0
2023-01-17T01:16:07.000Z,92.0
2023-01-17T01:16:22.000Z,92.0
2023-01-17T01:16:37.000Z,93.0
2023-01-17T01:16:52.000Z,92.0
2023-01-17T01:17:07.000Z,92.0
2023-01-17T01:17:22.000Z,92.0
2023-01-17T01:17:37.000Z,92.0
2023-01-17T01:17:52.000Z,93.0
2023-01-17T01:18:07.000Z,93.0
2023-01-17T01:18:22.000Z,93.0
2023-01-17T01:18:37.000Z,93.0
2023-01-17T01:18:52.000Z,93.0
2023-01-17T01:19:07.000Z,93.0
2023-01-17T01:19:22.000Z,92.0
2023-01-17T01:19:37.000Z,92.0
2023-01-17T01:19:52.000Z,92.0
2023-01-17T01:20:07.000Z,92.0
2023-01-17T01:20:22.000Z,92.0
2023-01-17T01:20:37.000Z,92.0
2023-01-17T01:20:52.000Z,93.0
2023-01-17T01:21:06.000Z,93.0
2023-01-17T01:21:21.000Z,93.0
2023-01-17T01:21:37.000Z,92.0
2023-01-17T01:21:52.000Z,92.0
2023-01-17T01:22:07.000Z,92.0
2023-01-17T01:22:22.000Z,92.0
2023-01-17T01:22:37.000Z,92.0
2023-01-17T01:22:52.000Z,92.0
2023-01-17T01:23:07.000Z,92.0
2023-01-17T01:23:22.000Z,92.0
2023-01-17T01:23:37.000Z,92.0
2023-01-17T01:23:52.000Z,92.0
2023-01-17T01:24:07.000Z,92.0
2023-01-17T01:24:22.000Z,92.0
2023-01-17T01:24:37.000Z,92.0
2023-01-17T01:24:52.000Z,93.0
2023-01-17T01:25:07.000Z,92.0
2023-01-17T01:25:22.000Z,92.0
2023-01-17T01:25:37.000Z,92.0
2023-01-17T01:25:52.000Z,92.0
2023-01-17T01:26:07.000Z,92.0
2023-01-17T01:26:22.000Z,92.0
2023-01-17T01:26:37.000Z,92.0
2023-01-17T01:26:52.000Z,92.0
2023-01-17T01:27:07.000Z,92.0
2023-01-17T01:27:22.000Z,92.0
2023-01-17T01:27:37.000Z,93.0
2023-01-17T01:27:52.000Z,92.0
2023-01-17T01:28:06.000Z,92.0
2023-01-17T01:28:21.000Z,93.0
2023-01-17T01:28:36.000Z,93.0
2023-01-17T01:28:52.000Z,92.0
2023-01-17T01:29:07.000Z,92.0
2023-01-17T01:29:22.000Z,92.0
2023-01-17T01:29:37.000Z,92.0
2023-01-17T01:29:52.000Z,92.0
2023-01-17T01:30:07.000Z,92.0
2023-01-17T01:30:22.000Z,92.0
2023-01-17T01:30:37.000Z,92.0
2023-01-17T01:30:52.000Z,93.0
2023-01-17T01:31:07.000Z,92.0
2023-01-17T01:31:22.000Z,91.0
2023-01-17T01:31:37.000Z,92.0
2023-01-17T01:31:52.000Z,92.0
2023-01-17T01:32:07.000Z,91.0
2023-01-17T01:32:22.000Z,92.0
2023-01-17T01:32:37.000Z,92.0
2023-01-17T01:32:52.000Z,92.0
2023-01-17T01:33:07.000Z,92.0
2023-01-17T01:33:22.000Z,92.0
2023-01-17T01:33:37.000Z,92.0
2023-01-17T01:33:52.000Z,92.0
2023-01-17T01:34:07.000Z,92.0
2023-01-17T01:34:22.000Z,92.0
2023-01-17T01:34:37.000Z,91.0
2023-01-17T01:34:52.000Z,92.0
2023-01-17T01:35:07.000Z,91.0
2023-01-17T01:35:21.000Z,91.0
2023-01-17T01:35:36.000Z,92.0
2023-01-17T01:35:51.000Z,92.0
2023-01-17T01:36:07.000Z,91.0
2023-01-17T01:36:22.000Z,91.0
2023-01-17T01:36:37.000Z,91.0
2023-01-17T01:36:52.000Z,90.0
2023-01-17T01:37:07.000Z,91.0
2023-01-17T01:37:22.000Z,91.0
2023-01-17T01:37:37.000Z,91.0
2023-01-17T01:37:52.000Z,91.0
2023-01-17T01:38:07.000Z,91.0
2023-01-17T01:38:22.000Z,92.0
2023-01-17T01:38:37.000Z,91.0
2023-01-17T01:38:52.000Z,91.0
2023-01-17T01:39:07.000Z,91.0
2023-01-17T01:39:22.000Z,91.0
2023-01-17T01:39:37.000Z,91.0
2023-01-17T01:39:52.000Z,91.0
2023-01-17T01:40:07.000Z,90.0
2023-01-17T01:40:22.000Z,90.0
2023-01-17T01:40:37.000Z,91.0
2023-01-17T01:40:52.000Z,91.0
2023-01-17T01:41:07.000Z,91.0
2023-01-17T01:41:22.000Z,90.0
2023-01-17T01:41:37.000Z,91.0
2023-01-17T01:41:52.000Z,91.0
2023-01-17T01:42:07.000Z,92.0
2023-01-17T01:42:22.000Z,91.0
2023-01-17T01:42:36.000Z,91.0
2023-01-17T01:42:51.000Z,91.0
2023-01-17T01:43:06.000Z,90.0
2023-01-17T01:43:22.000Z,91.0
2023-01-17T01:43:37.000Z,90.0
2023-01-17T01:43:52.000Z,90.0
2023-01-17T01:44:07.000Z,90.0
2023-01-17T01:44:22.000Z,89.0
2023-01-17T01:44:37.000Z,89.0
2023-01-17T01:44:52.000Z,90.0
2023-01-17T01:45:07.000Z,91.0
2023-01-17T01:45:22.000Z,90.0
2023-01-17T01:45:37.000Z,91.0
2023-01-17T01:45:52.000Z,91.0
2023-01-17T01:46:07.000Z,90.0
2023-01-17T01:46:22.000Z,90.0
2023-01-17T01:46:37.000Z,91.0
2023-01-17T01:46:52.000Z,90.0
2023-01-17T01:47:07.000Z,90.0
2023-01-17T01:47:22.000Z,90.0
2023-01-17T01:47:37.000Z,90.0
2023-01-17T01:47:52.000Z,90.0
2023-01-17T01:48:07.000Z,90.0
2023-01-17T01:48:22.000Z,90.0
2023-01-17T01:48:37.000Z,90.0
2023-01-17T01:48:52.000Z,90.0
2023-01-17T01:49:07.000Z,90.0
2023-01-17T01:49:22.000Z,90.0
2023-01-17T01:49:37.000Z,90.0
2023-01-17T01:49:51.000Z,90.0
2023-01-17T01:50:06.000Z,90.0
2023-01-17T01:50:21.000Z,90.0
2023-01-17T01:50:37.000Z,90.0
2023-01-17T01:50:52.000Z,90.0
2023-01-17T01:51:07.000Z,90.0
2023-01-17T01:51:22.000Z,91.0
2023-01-17T01:51:37.000Z,91.0
2023-01-17T01:51:52.000Z,91.0
2023-01-17T01:52:07.000Z,91.0
2023-01-17T01:52:22.000Z,90.0
2023-01-17T01:52:37.000Z,89.0
2023-01-17T01:52:52.000Z,89.0
2023-01-17T01:53:07.000Z,89.0
2023-01-17T01:53:22.000Z,89.0
2023-01-17T01:53:37.000Z,89.0
2023-01-17T01:53:52.000Z,89.0
2023-01-17T01:54:07.000Z,89.0
2023-01-17T01:54:22.000Z,89.0
2023-01-17T01:54:37.000Z,89.0
2023-01-17T01:54:52.000Z,89.0
2023-01-17T01:55:07.000Z,91.0
2023-01-17T01:55:22.000Z,90.0
2023-01-17T01:55:37.000Z,90.0
2023-01-17T01:55:52.000Z,90.0
2023-01-17T01:56:07.000Z,90.0
2023-01-17T01:56:22.000Z,90.0
2023-01-17T01:56:37.000Z,90.0
2023-01-17T01:56:52.000Z,90.0
2023-01-17T01:57:06.000Z,90.0
2023-01-17T01:57:21.000Z,90.0
2023-01-17T01:57:37.000Z,90.0
2023-01-17T01:57:52.000Z,90.0
2023-01-17T01:58:07.000Z,90.0
2023-01-17T01:58:22.000Z,90.0
2023-01-17T01:58:37.000Z,90.0
2023-01-17T01:58:52.000Z,91.0
2023-01-17T01:59:07.000Z,91.0
2023-01-17T01:59:22.000Z,91.0
2023-01-17T01:59:37.000Z,91.0
2023-01-17T01:59:52.000Z,91.0
2023-01-17T02:00:07.000Z,91.0
2023-01-17T02:00:22.000Z,91.0
2023-01-17T02:00:37.000Z,90.0
2023-01-17T02:00:52.000Z,90.0
2023-01-17T02:01:07.000Z,90.0
2023-01-17T02:01:22.000Z,89.0
2023-01-17T02:01:37.000Z,90.0
2023-01-17T02:01:52.000Z,90.0
2023-01-17T02:02:07.000Z,90.0
2023-01-17T02:02:22.000Z,90.0
2023-01-17T02:02:37.000Z,90.0
2023-01-17T02:02:52.000Z,90.0
2023-01-17T02:03:07.000Z,90.0
2023-01-17T02:03:22.000Z,90.0
2023-01-17T02:03:37.000Z,90.0
2023-01-17T02:03:52.000Z,89.0
2023-01-17T02:04:06.000Z,89.0
2023-01-17T02:04:21.000Z,91.0
2023-01-17T02:04:36.000Z,90.0
2023-01-17T02:04:52.000Z,90.0
2023-01-17T02:05:07.000Z,89.0
2023-01-17T02:05:22.000Z,90.0
2023-01-17T02:05:37.000Z,90.0
2023-01-17T02:05:52.000Z,90.0
2023-01-17T02:06:07.000Z,89.0
2023-01-17T02:06:22.000Z,89.0
2023-01-17T02:06:37.000Z,89.0
2023-01-17T02:06:52.000Z,91.0
2023-01-17T02:07:07.000Z,90.0
2023-01-17T02:07:22.000Z,90.0
2023-01-17T02:07:37.000Z,91.0
2023-01-17T02:07:52.000Z,90.0
2023-01-17T02:08:07.000Z,90.0
2023-01-17T02:08:22.000Z,90.0
2023-01-17T02:08:37.000Z,90.0
2023-01-17T02:08:52.000Z,89.0
2023-01-17T02:09:07.000Z,89.0
2023-01-17T02:09:22.000Z,89.0
2023-01-17T02:09:37.000Z,89.0
2023-01-17T02:09:52.000Z,89.0
2023-01-17T02:10:07.000Z,89.0
2023-01-17T02:10:22.000Z,89.0
2023-01-17T02:10:37.000Z,91.0
2023-01-17T02:10:52.000Z,90.0
2023-01-17T02:11:06.000Z,90.0
2023-01-17T02:11:21.000Z,90.0
2023-01-17T02:11:36.000Z,90.0
2023-01-17T02:11:52.000Z,91.0
2023-01-17T02:12:07.000Z,90.0
2023-01-17T02:12:22.000Z,91.0
2023-01-17T02:12:37.000Z,91.0
2023-01-17T02:12:52.000Z,90.0
2023-01-17T02:13:07.000Z,91.0
2023-01-17T02:13:22.000Z,90.0
2023-01-17T02:13:37.000Z,90.0
2023-01-17T02:13:52.000Z,90.0
2023-01-17T02:14:07.000Z,90.0
2023-01-17T02:14:22.000Z,89.0
2023-01-17T02:14:37.000Z,89.0
2023-01-17T02:14:52.000Z,89.0
2023-01-17T02:15:07.000Z,90.0
2023-01-17T02:15:22.000Z,91.0
2023-01-17T02:15:37.000Z,90.0
2023-01-17T02:15:52.000Z,90.0
2023-01-17T02:16:07.000Z,90.0
2023-01-17T02:16:22.000Z,90.0
2023-01-17T02:16:37.000Z,91.0
2023-01-17T02:16:52.000Z,91.0
2023-01-17T02:17:07.000Z,90.0
2023-01-17T02:17:22.000Z,89.0
2023-01-17T02:17:37.000Z,89.0
2023-01-17T02:17:52.000Z,89.0
2023-01-17T02:18:07.000Z,90.0
2023-01-17T02:18:21.000Z,90.0
2023-01-17T02:18:36.000Z,90.0
2023-01-17T02:18:52.000Z,90.0
2023-01-17T02:19:07.000Z,90.0
2023-01-17T02:19:22.000Z,90.0
2023-01-17T02:19:37.000Z,90.0
2023-01-17T02:19:52.000Z,89.0
2023-01-17T02:20:07.000Z,89.0
2023-01-17T02:20:22.000Z,89.0
2023-01-17T02:20:37.000Z,89.0
2023-01-17T02:20:52.000Z,90.0
2023-01-17T02:21:07.000Z,90.0
2023-01-17T02:21:22.000Z,90.0
2023-01-17T02:21:37.000Z,89.0
2023-01-17T02:21:52.000Z,90.0
2023-01-17T02:22:07.000Z,91.0
2023-01-17T02:22:22.000Z,90.0
2023-01-17T02:22:37.000Z,90.0
2023-01-17T02:22:52.000Z,89.0
2023-01-17T02:23:07.000Z,90.0
2023-01-17T02:23:22.000Z,91.0
2023-01-17T02:23:37.000Z,90.0
2023-01-17T02:23:52.000Z,90.0
2023-01-17T02:24:07.000Z,90.0
2023-01-17T02:24:22.000Z,90.0
2023-01-17T02:24:37.000Z,90.0
2023-01-17T02:24:52.000Z,90.0
2023-01-17T02:25:07.000Z,90.0
2023-01-17T02:25:21.000Z,91.0
2023-01-17T02:25:36.000Z,90.0
2023-01-17T02:25:51.000Z,90.0
2023-01-17T02:26:07.000Z,90.0
2023-01-17T02:26:22.000Z,90.0
2023-01-17T02:26:37.000Z,90.0
2023-01-17T02:26:52.000Z,90.0
2023-01-17T02:27:07.000Z,89.0
2023-01-17T02:27:22.000Z,90.0
2023-01-17T02:27:37.000Z,90.0
2023-01-17T02:27:52.000Z,90.0
2023-01-17T02:28:07.000Z,90.0
2023-01-17T02:28:22.000Z,90.0
2023-01-17T02:28:37.000Z,90.0
2023-01-17T02:28:52.000Z,90.0
2023-01-17T02:29:07.000Z,89.0
2023-01-17T02:29:22.000Z,89.0
2023-01-17T02:29:37.000Z,89.0
2023-01-17T02:29:52.000Z,90.0
2023-01-17T02:30:07.000Z,90.0
2023-01-17T02:30:22.000Z,90.0
2023-01-17T02:30:37.000Z,91.0
2023-01-17T02:30:52.000Z,91.0
2023-01-17T02:31:07.000Z,90.0
2023-01-17T02:31:22.000Z,89.0
2023-01-17T02:31:37.000Z,89.0
2023-01-17T02:31:52.000Z,89.0
2023-01-17T02:32:07.000Z,89.0
2023-01-17T02:32:21.000Z,89.0
2023-01-17T02:32:36.000Z,88.0
2023-01-17T02:32:51.000Z,88.0
2023-01-17T02:33:07.000Z,89.0
2023-01-17T02:33:22.000Z,89.0
2023-01-17T02:33:37.000Z,88.0
2023-01-17T02:33:52.000Z,88.0
2023-01-17T02:34:07.000Z,88.0
2023-01-17T02:34:22.000Z,89.0
2023-01-17T02:34:37.000Z,88.0
2023-01-17T02:34:52.000Z,88.0
2023-01-17T02:35:07.000Z,89.0
2023-01-17T02:35:22.000Z,89.0
2023-01-17T02:35:37.000Z,89.0
2023-01-17T02:35:52.000Z,89.0
2023-01-17T02:36:07.000Z,89.0
2023-01-17T02:36:22.000Z,89.0
2023-01-17T02:36:37.000Z,89.0
2023-01-17T02:36:52.000Z,89.0
2023-01-17T02:37:07.000Z,90.0
2023-01-17T02:37:22.000Z,89.0
2023-01-17T02:37:37.000Z,89.0
2023-01-17T02:37:52.000Z,89.0
2023-01-17T02:38:07.000Z,89.0
2023-01-17T02:38:22.000Z,90.0
2023-01-17T02:38:37.000Z,90.0
2023-01-17T02:38:52.000Z,89.0
2023-01-17T02:39:07.000Z,89.0
2023-01-17T02:39:21.000Z,88.0
2023-01-17T02:39:36.000Z,88.0
2023-01-17T02:39:51.000Z,89.0
2023-01-17T02:40:07.000Z,89.0
2023-01-17T02:40:22.000Z,88.0
2023-01-17T02:40:37.000Z,88.0
2023-01-17T02:40:52.000Z,88.0
2023-01-17T02:41:07.000Z,88.0
2023-01-17T02:41:22.000Z,87.0
2023-01-17T02:41:37.000Z,88.0
2023-01-17T02:41:52.000Z,89.0
2023-01-17T02:42:07.000Z,88.0
2023-01-17T02:42:22.000Z,88.0
2023-01-17T02:42:37.000Z,89.0
2023-01-17T02:42:52.000Z,88.0
2023-01-17T02:43:07.000Z,88.0
2023-01-17T02:43:22.000Z,88.0
2023-01-17T02:43:37.000Z,88.0
2023-01-17T02:43:52.000Z,90.0
2023-01-17T02:44:07.000Z,89.0
2023-01-17T02:44:22.000Z,89.0
2023-01-17T02:44:37.000Z,88.0
2023-01-17T02:44:52.000Z,89.0
2023-01-17T02:45:07.000Z,89.0
2023-01-17T02:45:22.000Z,89.0
2023-01-17T02:45:37.000Z,88.0
2023-01-17T02:45:52.000Z,88.0
2023-01-17T02:46:07.000Z,88.0
2023-01-17T02:46:22.000Z,89.0
2023-01-17T02:46:36.000Z,89.0
2023-01-17T02:46:51.000Z,88.0
2023-01-17T02:47:06.000Z,88.0
2023-01-17T02:47:22.000Z,88.0
2023-01-17T02:47:37.000Z,88.0
2023-01-17T02:47:52.000Z,89.0
2023-01-17T02:48:07.000Z,89.0
2023-01-17T02:48:22.000Z,88.0
2023-01-17T02:48:37.000Z,88.0
2023-01-17T02:48:52.000Z,88.0
2023-01-17T02:49:07.000Z,89.0
2023-01-17T02:49:22.000Z,89.0
2023-01-17T02:49:37.000Z,88.0
2023-01-17T02:49:52.000Z,88.0
2023-01-17T02:50:07.000Z,90.0
2023-01-17T02:50:22.000Z,89.0
2023-01-17T02:50:37.000Z,89.0
2023-01-17T02:50:52.000Z,90.0
2023-01-17T02:51:07.000Z,89.0
2023-01-17T02:51:22.000Z,89.0
2023-01-17T02:51:37.000Z,90.0
2023-01-17T02:51:52.000Z,90.0
2023-01-17T02:52:07.000Z,89.0
2023-01-17T02:52:22.000Z,88.0
2023-01-17T02:52:37.000Z,89.0
2023-01-17T02:52:52.000Z,89.0
2023-01-17T02:53:07.000Z,89.0
2023-01-17T02:53:22.000Z,89.0
2023-01-17T02:53:36.000Z,89.0
2023-01-17T02:53:51.000Z,90.0
2023-01-17T02:54:06.000Z,90.0
2023-01-17T02:54:22.000Z,89.0
2023-01-17T02:54:37.000Z,90.0
2023-01-17T02:54:52.000Z,90.0
2023-01-17T02:55:07.000Z,90.0
2023-01-17T02:55:22.000Z,89.0
2023-01-17T02:55:37.000Z,89.0
2023-01-17T02:55:52.000Z,90.0
2023-01-17T02:56:07.000Z,89.0
2023-01-17T02:56:22.000Z,90.0
2023-01-17T02:56:37.000Z,89.0
2023-01-17T02:56:52.000Z,89.0
2023-01-17T02:57:07.000Z,89.0
2023-01-17T02:57:22.000Z,89.0
2023-01-17T02:57:37.000Z,89.0
2023-01-17T02:57:52.000Z,89.0
2023-01-17T02:58:07.000Z,90.0
2023-01-17T02:58:22.000Z,90.0
2023-01-17T02:58:37.000Z,90.0
2023-01-17T02:58:52.000Z,89.0
2023-01-17T02:59:07.000Z,89.0
2023-01-17T02:59:22.000Z,89.0
2023-01-17T02:59:37.000Z,89.0
2023-01-17T02:59:52.000Z,89.0
2023-01-17T03:00:07.000Z,90.0
2023-01-17T03:00:22.000Z,90.0
2023-01-17T03:00:37.000Z,90.0
2023-01-17T03:00:51.000Z,91.0
2023-01-17T03:01:06.000Z,90.0
2023-01-17T03:01:22.000Z,90.0
2023-01-17T03:01:37.000Z,90.0
2023-01-17T03:01:52.000Z,90.0
2023-01-17T03:02:07.000Z,90.0
2023-01-17T03:02:22.000Z,90.0
2023-01-17T03:02:37.000Z,90.0
2023-01-17T03:02:52.000Z,90.0
2023-01-17T03:03:07.000Z,91.0
2023-01-17T03:03:22.000Z,90.0
2023-01-17T03:03:37.000Z,91.0
2023-01-17T03:03:52.000Z,90.0
2023-01-17T03:04:07.000Z,91.0
2023-01-17T03:04:22.000Z,90.0
2023-01-17T03:04:37.000Z,90.0
2023-01-17T03:04:52.000Z,90.0
2023-01-17T03:05:07.000Z,90.0
2023-01-17T03:05:22.000Z,90.0
2023-01-17T03:05:37.000Z,90.0
2023-01-17T03:05:52.000Z,90.0
2023-01-17T03:06:07.000Z,90.0
2023-01-17T03:06:22.000Z,90.0
2023-01-17T03:06:37.000Z,91.0
2023-01-17T03:06:52.000Z,91.0
2023-01-17T03:07:07.000Z,91.0
2023-01-17T03:07:22.000Z,90.0
2023-01-17T03:07:37.000Z,90.0
2023-01-17T03:07:51.000Z,90.0
2023-01-17T03:08:06.000Z,90.0
2023-01-17T03:08:21.000Z,91.0
2023-01-17T03:08:37.000Z,91.0
2023-01-17T03:08:52.000Z,91.0
2023-01-17T03:09:07.000Z,91.0
2023-01-17T03:09:22.000Z,91.0
2023-01-17T03:09:37.000Z,91.0
2023-01-17T03:09:52.000Z,90.0
2023-01-17T03:10:07.000Z,90.0
2023-01-17T03:10:22.000Z,90.0
2023-01-17T03:10:37.000Z,91.0
2023-01-17T03:10:52.000Z,91.0
2023-01-17T03:11:07.000Z,91.0
2023-01-17T03:11:22.000Z,92.0
2023-01-17T03:11:37.000Z,91.0
2023-01-17T03:11:52.000Z,90.0
2023-01-17T03:12:07.000Z,90.0
2023-01-17T03:12:22.000Z,90.0
2023-01-17T03:12:37.000Z,90.0
2023-01-17T03:12:52.000Z,91.0
2023-01-17T03:13:07.000Z,91.0
2023-01-17T03:13:22.000Z,91.0
2023-01-17T03:13:37.000Z,91.0
2023-01-17T03:13:52.000Z,91.0
2023-01-17T03:14:07.000Z,91.0
2023-01-17T03:14:22.000Z,91.0
2023-01-17T03:14:37.000Z,91.0
2023-01-17T03:14:52.000Z,91.0
2023-01-17T03:15:06.000Z,90.0
2023-01-17T03:15:21.000Z,90.0
2023-01-17T03:15:36.000Z,91.0
2023-01-17T03:15:52.000Z,90.0
2023-01-17T03:16:07.000Z,90.0
2023-01-17T03:16:22.000Z,91.0
2023-01-17T03:16:37.000Z,91.0
2023-01-17T03:16:52.000Z,91.0
2023-01-17T03:17:07.000Z,91.0
2023-01-17T03:17:22.000Z,91.0
2023-01-17T03:17:37.000Z,91.0
2023-01-17T03:17:52.000Z,90.0
2023-01-17T03:18:07.000Z,91.0
2023-01-17T03:18:22.000Z,91.0
2023-01-17T03:18:37.000Z,91.0
2023-01-17T03:18:52.000Z,91.0
2023-01-17T03:19:07.000Z,92.0
2023-01-17T03:19:22.000Z,91.0
2023-01-17T03:19:37.000Z,91.0